EDTL METAR and TAF | Updated Today

EDTL METAR

Lahr Airport

Observation time: 25 min. ago

EDTL 200720Z 18003KT 130V230 CAVOK 24/16 Q1020

Need help? Read our tutorial on how to read METARs or read the parsed version below.

Lahr Airport (EDTL) METAR

  • Weather conditions on Fri, 20 May 2022 07:20:00 +0000 (25 min. ago):
  • Present conditions: Dry
  • Clouds: Clear skies
  • Visibility: Greater than 10 km
  • Wind: 180 degrees at 3 knots
  • Temperature: 24 celsius
  • Dew point: 16 celsius
  • Pressure: 1020 millibars
  • Remarks: None


Useful to know...

EDTL TAF

Lahr Airport

TAF EDTL 200618Z 2007/2015 VRB02KT 9999 FEW025 BECMG 2007/2009 20008KT BECMG 2011/2013 21013KT
Observation time: 87 min. ago
Need help? Read our tutorial on how to read TAFs or read the parsed version below.

Parsed version of TAF for Lahr Airport (EDTL)

  • From 20 May at 07:00 UTC, to day 20 of the month at 15:00 UTC
  • Clouds: A few at 762 meters
  • Visibility: Greater than 10 km
  • Wind: Variable at 2
  • Expected to arise soon, from 20 May at 07:00 UTC, to day 20 of the month at 09:00 UTC
  • Wind: 200 degrees at 8
  • Expected to arise soon, from 20 May at 11:00 UTC, to day 20 of the month at 13:00 UTC
  • Wind: 210 degrees at 13